Time;durP1;ratioP1;P1;durP2;ratioP2;P2;SDS_P1;SDS_P2;PMS_P1;PMS_P2;Temp;Humidity;BMP_temperature;BMP_pressure;BME280_temperature;BME280_humidity;BME280_pressure;Samples;Min_cycle;Max_cycle;Signal;HPM_P1;HPM_P2
2021/03/15 00:01:05;;;;;;;25.73;17.10;;;;;;;3.89;79.22;98741.84;1707973;82;21143;-61
2021/03/15 00:03:34;;;;;;;25.17;18.03;;;;;;;3.90;79.17;98742.70;1706214;82;21096;-62
2021/03/15 00:06:01;;;;;;;27.53;18.87;;;;;;;3.87;79.10;98744.14;1705933;82;21012;-61
2021/03/15 00:08:29;;;;;;;25.43;18.17;;;;;;;3.85;79.13;98756.17;1708919;82;21151;-60
2021/03/15 00:10:57;;;;;;;24.43;17.97;;;;;;;3.83;79.17;98754.52;1707174;82;21277;-60
2021/03/15 00:13:25;;;;;;;24.83;17.70;;;;;;;3.82;79.19;98746.98;1707762;82;21559;-64
2021/03/15 00:15:55;;;;;;;23.43;17.27;;;;;;;3.82;79.19;98740.34;1707890;82;21129;-64
2021/03/15 00:18:22;;;;;;;22.90;16.90;;;;;;;3.83;79.22;98735.39;1705765;82;22130;-59
2021/03/15 00:20:49;;;;;;;21.93;15.77;;;;;;;3.84;79.25;98743.78;1703893;82;21900;-60
2021/03/15 00:23:17;;;;;;;23.40;17.50;;;;;;;3.86;79.27;98749.92;1705911;82;21152;-64
2021/03/15 00:25:44;;;;;;;27.40;18.63;;;;;;;3.87;79.30;98753.00;1705116;82;21642;-64
2021/03/15 00:28:12;;;;;;;29.20;20.03;;;;;;;3.88;79.31;98749.88;1706148;82;21111;-62
2021/03/15 00:30:39;;;;;;;34.13;20.67;;;;;;;3.88;79.27;98752.54;1707935;82;22122;-61
2021/03/15 00:33:06;;;;;;;31.27;21.73;;;;;;;3.88;79.31;98752.54;1698362;82;21128;-61
2021/03/15 00:35:34;;;;;;;28.27;18.90;;;;;;;3.87;79.33;98755.66;1687600;82;21192;-62
2021/03/15 00:38:01;;;;;;;24.90;17.57;;;;;;;3.88;79.37;98755.20;1688625;82;21216;-62
2021/03/15 00:40:29;;;;;;;25.43;18.33;;;;;;;3.91;79.35;98753.77;1688053;82;21183;-62
2021/03/15 00:42:56;;;;;;;25.43;18.27;;;;;;;3.92;79.34;98758.14;1687501;82;21408;-60
2021/03/15 00:47:27;;;;;;;28.77;20.00;;;;;;;3.99;79.38;98751.22;1796190;78;26937;-63
2021/03/15 00:49:56;;;;;;;27.23;19.47;;;;;;;3.96;79.35;98754.45;1773542;79;21484;-63
2021/03/15 00:52:23;;;;;;;29.57;20.63;;;;;;;3.95;79.34;98750.92;1775134;79;21278;-60
2021/03/15 00:54:51;;;;;;;31.80;21.23;;;;;;;3.96;79.39;98753.98;1773098;79;21530;-64
2021/03/15 00:57:20;;;;;;;32.10;22.10;;;;;;;3.97;79.39;98754.86;1773491;79;21214;-63
2021/03/15 00:59:49;;;;;;;31.73;21.57;;;;;;;3.98;79.38;98749.94;1775084;79;21150;-61
2021/03/15 01:02:17;;;;;;;34.63;20.03;;;;;;;3.97;79.35;98753.53;1771468;79;21422;-61
2021/03/15 01:04:44;;;;;;;29.70;20.30;;;;;;;3.98;79.32;98738.83;1770865;79;21191;-61
2021/03/15 01:07:14;;;;;;;27.07;18.53;;;;;;;3.98;79.37;98743.28;1771885;79;21429;-60
2021/03/15 01:09:42;;;;;;;28.47;18.43;;;;;;;4.00;79.44;98746.73;1774250;79;20998;-61
2021/03/15 01:12:14;;;;;;;25.73;20.00;;;;;;;4.03;79.43;98738.18;1766847;79;21120;-61
2021/03/15 01:14:41;;;;;;;31.00;20.93;;;;;;;4.05;79.43;98733.67;1772464;79;21187;-63
2021/03/15 01:17:13;;;;;;;31.43;22.57;;;;;;;4.08;79.41;98727.38;1771325;79;21195;-64
2021/03/15 01:19:42;;;;;;;30.83;21.60;;;;;;;4.09;79.33;98729.08;1771250;79;21226;-63
2021/03/15 01:22:11;;;;;;;32.63;22.97;;;;;;;4.09;79.31;98730.41;1771339;79;21187;-63
2021/03/15 01:24:39;;;;;;;35.20;24.93;;;;;;;4.10;79.31;98725.49;1769189;79;21191;-64
2021/03/15 01:27:06;;;;;;;31.57;22.97;;;;;;;4.10;79.29;98729.48;1773074;79;21199;-60
2021/03/15 01:29:33;;;;;;;34.43;22.70;;;;;;;4.10;79.26;98723.70;1773092;79;21644;-62
2021/03/15 01:32:01;;;;;;;28.17;20.00;;;;;;;4.13;79.19;98729.38;1773448;79;21183;-63
2021/03/15 01:34:28;;;;;;;27.17;19.13;;;;;;;4.12;79.16;98723.19;1769552;79;21621;-63
2021/03/15 01:36:57;;;;;;;31.93;21.97;;;;;;;4.12;79.16;98712.53;1770955;79;21600;-61
2021/03/15 01:39:24;;;;;;;33.43;23.20;;;;;;;4.11;79.19;98705.47;1772772;79;21188;-63
2021/03/15 01:41:51;;;;;;;35.13;24.07;;;;;;;4.09;79.22;98705.98;1772035;79;21625;-61
2021/03/15 01:44:19;;;;;;;37.70;25.60;;;;;;;4.07;79.26;98709.66;1772663;78;21226;-64
2021/03/15 01:46:46;;;;;;;35.93;23.50;;;;;;;4.07;79.27;98718.98;1769637;79;21175;-61
2021/03/15 01:49:13;;;;;;;32.50;22.13;;;;;;;4.05;79.27;98721.69;1769561;79;21483;-62
2021/03/15 01:51:40;;;;;;;30.53;21.93;;;;;;;4.06;79.24;98719.90;1769728;79;21194;-63
2021/03/15 01:54:08;;;;;;;30.60;21.17;;;;;;;4.06;79.24;98717.23;1764508;79;21981;-61
2021/03/15 01:56:36;;;;;;;34.73;21.03;;;;;;;4.07;79.25;98719.84;1769207;79;21166;-63
2021/03/15 01:59:04;;;;;;;31.87;22.13;;;;;;;4.06;79.24;98711.91;1734416;80;21461;-63
2021/03/15 02:01:31;;;;;;;36.03;23.60;;;;;;;4.04;79.28;98721.28;1764099;79;21195;-63
2021/03/15 02:03:59;;;;;;;35.97;24.90;;;;;;;4.04;79.30;98724.41;1766510;79;21194;-60
2021/03/15 02:06:26;;;;;;;35.73;25.00;;;;;;;4.03;79.32;98727.98;1766041;79;21862;-64
2021/03/15 02:08:55;;;;;;;36.53;24.13;;;;;;;4.01;79.32;98729.84;1769282;79;21139;-63
2021/03/15 02:11:48;;;;;;;38.13;24.60;;;;;;;3.99;79.34;98736.58;1768159;79;21197;-64
2021/03/15 02:14:46;;;;;;;36.87;22.53;;;;;;;3.99;79.32;98733.91;1768252;79;21116;-62
2021/03/15 02:17:22;;;;;;;40.20;24.57;;;;;;;3.99;79.37;98746.36;1726497;80;21669;-64
2021/03/15 02:20:25;;;;;;;42.43;22.87;;;;;;;3.98;79.46;98745.48;1732531;79;21906;-64
2021/03/15 02:23:14;;;;;;;42.57;25.47;;;;;;;3.99;79.57;98746.36;1767236;79;21724;-65
2021/03/15 02:26:19;;;;;;;42.03;24.33;;;;;;;4.00;79.65;98753.39;1768158;79;21753;-63
2021/03/15 02:29:32;;;;;;;45.00;25.32;;;;;;;3.98;79.70;98752.14;1770443;79;21171;-62
2021/03/15 02:32:41;;;;;;;52.90;29.30;;;;;;;3.98;79.82;98748.16;1766477;79;21855;-63
2021/03/15 02:35:23;;;;;;;50.33;26.53;;;;;;;3.96;79.82;98746.46;1768993;79;21772;-62
2021/03/15 02:38:03;;;;;;;53.57;28.00;;;;;;;3.96;79.94;98743.34;1768130;79;21939;-63
2021/03/15 02:40:47;;;;;;;56.20;27.80;;;;;;;3.97;80.06;98741.55;1768174;80;21216;-62
2021/03/15 02:43:24;;;;;;;55.07;26.93;;;;;;;3.97;80.14;98742.41;1767198;79;21235;-63
2021/03/15 02:45:59;;;;;;;58.67;29.37;;;;;;;3.98;80.26;98741.50;1767090;79;21187;-63
2021/03/15 02:48:26;;;;;;;50.57;27.63;;;;;;;3.99;80.34;98745.03;1758509;79;21687;-64
2021/03/15 02:50:55;;;;;;;57.57;30.00;;;;;;;4.01;80.43;98733.83;1757536;79;21227;-63
2021/03/15 02:53:22;;;;;;;59.50;31.93;;;;;;;4.01;80.46;98724.05;1759872;79;21621;-65
2021/03/15 02:55:51;;;;;;;62.73;32.63;;;;;;;4.00;80.47;98719.64;1764623;79;21195;-63
2021/03/15 02:58:19;;;;;;;59.27;31.60;;;;;;;3.98;80.47;98722.86;1761390;79;21203;-62
2021/03/15 03:00:46;;;;;;;53.30;29.00;;;;;;;3.97;80.57;98717.58;1757629;79;21592;-64
2021/03/15 03:03:18;;;;;;;51.23;27.97;;;;;;;3.98;80.62;98713.53;1760319;79;21290;-62
2021/03/15 03:05:46;;;;;;;53.23;28.80;;;;;;;4.00;80.65;98716.11;1762338;79;22236;-63
2021/03/15 03:08:16;;;;;;;49.43;28.10;;;;;;;4.00;80.69;98712.13;1762032;79;21704;-61
2021/03/15 03:10:44;;;;;;;55.10;30.03;;;;;;;4.00;80.72;98719.64;1761141;79;21227;-62
2021/03/15 03:13:11;;;;;;;61.20;32.50;;;;;;;4.00;80.78;98718.31;1764233;79;22006;-63
2021/03/15 03:15:39;;;;;;;58.57;31.37;;;;;;;4.00;80.77;98716.11;1759922;79;21223;-63
2021/03/15 03:18:06;;;;;;;64.20;31.50;;;;;;;3.98;80.87;98715.33;1760207;79;21752;-64
2021/03/15 03:20:34;;;;;;;60.57;31.70;;;;;;;3.97;80.97;98709.59;1720908;82;21233;-63
2021/03/15 03:23:03;;;;;;;64.00;33.03;;;;;;;3.96;80.98;98712.72;1759343;79;21180;-62
2021/03/15 03:25:30;;;;;;;58.07;32.50;;;;;;;3.96;80.95;98715.84;1756018;79;21184;-62
2021/03/15 03:27:58;;;;;;;59.40;30.63;;;;;;;3.95;80.97;98715.44;1760026;79;21212;-62
2021/03/15 03:30:28;;;;;;;60.90;29.93;;;;;;;3.96;81.00;98722.04;1763025;80;21168;-63
2021/03/15 03:32:58;;;;;;;54.30;28.27;;;;;;;3.97;81.01;98720.25;1758309;79;21826;-62
2021/03/15 03:35:25;;;;;;;60.53;30.23;;;;;;;3.97;80.98;98716.25;1758830;79;21179;-64
2021/03/15 03:37:53;;;;;;;59.17;29.87;;;;;;;3.95;81.01;98727.41;1757908;79;22545;-65
2021/03/15 03:40:21;;;;;;;60.17;30.97;;;;;;;3.93;81.06;98723.47;1715289;79;21198;-65
2021/03/15 03:42:48;;;;;;;61.43;34.47;;;;;;;3.92;81.14;98724.86;1758091;79;21199;-63
2021/03/15 03:45:15;;;;;;;61.33;32.07;;;;;;;3.89;81.23;98739.64;1759660;79;21172;-64
2021/03/15 03:47:43;;;;;;;60.90;32.03;;;;;;;3.86;81.36;98731.75;1759016;80;21203;-62
2021/03/15 03:50:16;;;;;;;56.73;30.27;;;;;;;3.84;81.43;98729.60;1761954;79;21201;-64
2021/03/15 03:52:51;;;;;;;62.50;33.47;;;;;;;3.82;81.53;98735.01;1758888;79;21199;-65
2021/03/15 03:55:19;;;;;;;60.10;29.50;;;;;;;3.81;81.62;98738.59;1759408;79;21188;-63
2021/03/15 03:57:47;;;;;;;56.50;30.93;;;;;;;3.82;81.79;98744.79;1761899;79;21853;-63
2021/03/15 04:00:16;;;;;;;65.10;34.70;;;;;;;3.81;81.90;98743.92;1762537;79;21489;-63
2021/03/15 04:02:56;;;;;;;65.07;33.73;;;;;;;3.79;82.02;98737.31;1759468;79;22024;-64
2021/03/15 04:05:30;;;;;;;73.93;35.70;;;;;;;3.80;82.08;98731.53;1764694;79;21159;-63
2021/03/15 04:08:02;;;;;;;63.33;33.40;;;;;;;3.77;82.14;98735.16;1761272;79;21108;-61
2021/03/15 04:10:30;;;;;;;64.53;33.70;;;;;;;3.78;82.17;98746.22;1758117;79;21200;-65
2021/03/15 04:13:02;;;;;;;63.43;32.53;;;;;;;3.79;82.21;98744.42;1703604;81;21179;-63
2021/03/15 04:15:30;;;;;;;67.63;31.07;;;;;;;3.79;82.25;98750.63;1758117;79;22272;-62
2021/03/15 04:17:58;;;;;;;69.10;31.73;;;;;;;3.78;82.32;98756.00;1763249;79;21611;-64
2021/03/15 04:20:32;;;;;;;68.23;35.63;;;;;;;3.80;82.37;98758.14;1761751;79;21359;-62
2021/03/15 04:23:00;;;;;;;63.17;33.03;;;;;;;3.80;82.42;98768.33;1758688;80;21619;-63
2021/03/15 04:25:30;;;;;;;65.50;34.87;;;;;;;3.80;82.44;98765.67;1763452;79;21204;-64
2021/03/15 04:27:58;;;;;;;67.73;35.47;;;;;;;3.82;82.45;98764.29;1697803;82;22344;-62
2021/03/15 04:30:25;;;;;;;74.83;39.03;;;;;;;3.83;82.51;98770.48;1757658;80;21183;-65
2021/03/15 04:32:53;;;;;;;64.90;34.30;;;;;;;3.83;82.55;98767.83;1697463;82;21247;-62
2021/03/15 04:35:31;;;;;;;69.40;35.33;;;;;;;3.85;82.62;98776.59;1759067;79;22394;-64
2021/03/15 04:38:04;;;;;;;63.97;32.07;;;;;;;3.87;82.58;98768.97;1759525;79;21155;-64
2021/03/15 04:40:33;;;;;;;61.63;32.07;;;;;;;3.89;82.56;98776.45;1755142;80;21436;-61
2021/03/15 04:43:00;;;;;;;61.40;33.43;;;;;;;3.92;82.63;98772.78;1755793;79;21221;-61
2021/03/15 04:45:33;;;;;;;60.93;33.37;;;;;;;3.95;82.66;98770.02;1761012;80;21179;-63
2021/03/15 04:48:02;;;;;;;69.73;35.30;;;;;;;3.99;82.66;98774.31;1761477;79;21215;-63
2021/03/15 04:50:32;;;;;;;69.47;35.63;;;;;;;3.99;82.57;98783.64;1737819;80;21180;-63
2021/03/15 04:53:01;;;;;;;66.80;35.43;;;;;;;3.98;82.53;98784.56;1762570;80;21813;-62
2021/03/15 04:55:28;;;;;;;71.90;38.07;;;;;;;3.98;82.61;98788.09;1734695;80;21188;-64
2021/03/15 04:57:57;;;;;;;71.80;36.50;;;;;;;3.98;82.65;98791.21;1764623;80;21167;-62
2021/03/15 05:00:26;;;;;;;58.67;32.43;;;;;;;3.99;82.64;98787.17;1759736;80;21211;-63
2021/03/15 05:02:53;;;;;;;57.90;32.23;;;;;;;4.01;82.60;98779.09;1756664;80;21966;-62
2021/03/15 05:05:21;;;;;;;58.20;32.63;;;;;;;4.03;82.62;98786.58;1759563;80;21239;-63
2021/03/15 05:07:49;;;;;;;59.90;32.70;;;;;;;4.06;82.65;98793.12;1758850;80;21219;-61
2021/03/15 05:10:17;;;;;;;62.50;33.93;;;;;;;4.09;82.66;98791.66;1757878;80;21595;-62
2021/03/15 05:12:44;;;;;;;65.00;34.70;;;;;;;4.11;82.62;98789.36;1760192;80;21258;-62
2021/03/15 05:15:12;;;;;;;60.33;33.67;;;;;;;4.12;82.60;98793.77;1754953;80;21196;-62
2021/03/15 05:17:40;;;;;;;64.77;36.70;;;;;;;4.13;82.62;98791.51;1756292;80;22944;-64
2021/03/15 05:20:11;;;;;;;64.43;38.03;;;;;;;4.15;82.59;98782.13;1762189;80;21227;-63
2021/03/15 05:22:38;;;;;;;61.87;33.77;;;;;;;4.15;82.55;98790.13;1758834;80;21191;-65
2021/03/15 05:25:09;;;;;;;62.50;32.67;;;;;;;4.16;82.47;98787.88;1762221;79;21930;-62
2021/03/15 05:27:36;;;;;;;59.57;33.83;;;;;;;4.18;82.37;98788.19;1758986;80;21212;-64
2021/03/15 05:30:07;;;;;;;58.17;32.03;;;;;;;4.20;82.37;98786.81;1762265;80;21641;-62
2021/03/15 05:32:40;;;;;;;58.23;31.40;;;;;;;4.21;82.39;98793.01;1762729;79;21254;-61
2021/03/15 05:35:09;;;;;;;57.90;33.23;;;;;;;4.23;82.39;98796.03;1758310;79;21211;-64
2021/03/15 05:37:36;;;;;;;67.97;37.33;;;;;;;4.25;82.44;98798.18;1701442;82;21208;-61
2021/03/15 05:40:10;;;;;;;70.27;37.53;;;;;;;4.27;82.44;98800.30;1759622;79;21307;-61
2021/03/15 05:43:02;;;;;;;68.60;38.93;;;;;;;4.30;82.47;98798.86;1762782;79;21393;-62
2021/03/15 05:46:06;;;;;;;70.90;39.73;;;;;;;4.30;82.42;98798.86;1760550;79;21191;-62
2021/03/15 05:49:02;;;;;;;64.77;35.73;;;;;;;4.32;82.38;98801.01;1746875;80;21488;-61
2021/03/15 05:51:47;;;;;;;64.97;34.20;;;;;;;4.36;82.37;98806.61;1742100;80;21431;-64
2021/03/15 05:54:46;;;;;;;53.08;31.68;;;;;;;4.39;82.37;98797.18;1740655;80;21139;-62
2021/03/15 05:58:06;;;;;;;62.27;35.00;;;;;;;4.45;82.32;98799.59;1745671;80;21247;-63
2021/03/15 06:01:08;;;;;;;57.07;33.87;;;;;;;4.49;82.26;98797.23;1709885;81;21150;-63
2021/03/15 06:04:09;;;;;;;65.43;37.13;;;;;;;4.54;82.30;98803.70;1676854;81;21195;-62
2021/03/15 06:06:38;;;;;;;60.90;37.20;;;;;;;4.56;82.27;98800.06;1708391;81;21237;-65
2021/03/15 06:09:06;;;;;;;57.90;35.83;;;;;;;4.58;82.22;98805.34;1709548;81;21123;-63
2021/03/15 06:11:48;;;;;;;58.67;34.00;;;;;;;4.61;82.25;98805.66;1712206;81;21255;-63
2021/03/15 06:14:16;;;;;;;49.17;31.23;;;;;;;4.63;82.14;98808.67;1711852;81;21243;-64
2021/03/15 06:16:43;;;;;;;47.07;27.87;;;;;;;4.65;82.12;98804.16;1710769;81;22243;-61
2021/03/15 06:19:11;;;;;;;44.70;28.07;;;;;;;4.68;82.01;98808.02;1710470;81;21204;-62
2021/03/15 06:21:41;;;;;;;43.90;27.83;;;;;;;4.70;82.03;98813.30;1710797;81;21560;-62
2021/03/15 06:24:09;;;;;;;45.40;29.63;;;;;;;4.71;82.02;98821.23;1710841;81;21386;-62
2021/03/15 06:26:36;;;;;;;49.63;30.67;;;;;;;4.73;82.04;98811.39;1711949;82;21160;-63
2021/03/15 06:29:04;;;;;;;50.90;31.40;;;;;;;4.75;81.98;98809.54;1708876;81;21192;-62
2021/03/15 06:31:34;;;;;;;56.87;33.80;;;;;;;4.75;81.84;98814.88;1707627;81;21204;-61
2021/03/15 06:34:01;;;;;;;46.27;29.47;;;;;;;4.74;81.86;98814.47;1713621;81;21567;-61
2021/03/15 06:36:30;;;;;;;53.20;30.90;;;;;;;4.75;81.80;98820.67;1707901;81;21233;-62
2021/03/15 06:38:58;;;;;;;46.43;28.37;;;;;;;4.77;81.76;98810.78;1653211;81;21157;-60
2021/03/15 06:41:25;;;;;;;43.80;28.20;;;;;;;4.80;81.75;98820.01;1708387;81;21186;-61
2021/03/15 06:43:52;;;;;;;41.27;26.27;;;;;;;4.83;81.76;98818.56;1702239;82;21612;-63
2021/03/15 06:46:20;;;;;;;44.80;28.70;;;;;;;4.87;81.70;98814.83;1701741;82;21255;-60
2021/03/15 06:48:48;;;;;;;49.50;31.13;;;;;;;4.89;81.63;98817.84;1701079;82;21577;-63
2021/03/15 06:51:15;;;;;;;52.93;31.63;;;;;;;4.90;81.54;98823.59;1699681;82;21462;-60
2021/03/15 06:53:42;;;;;;;53.30;33.47;;;;;;;4.90;81.48;98819.59;1703780;82;21166;-63
2021/03/15 06:56:15;;;;;;;51.27;32.83;;;;;;;4.91;81.39;98817.79;1703640;82;21593;-61
2021/03/15 07:01:35;;;;;;;46.47;29.43;;;;;;;4.87;81.26;98814.83;1698428;82;21732;-64
2021/03/15 07:04:07;;;;;;;41.30;28.10;;;;;;;4.92;81.30;98812.40;1653096;83;22079;-62
2021/03/15 07:06:43;;;;;;;52.10;32.30;;;;;;;4.97;81.27;98806.86;1693706;83;21274;-62
2021/03/15 07:09:13;;;;;;;50.30;31.63;;;;;;;4.99;81.18;98810.34;1697724;82;21613;-61
2021/03/15 07:11:41;;;;;;;57.20;34.53;;;;;;;5.01;81.22;98804.49;1694479;82;21235;-61
2021/03/15 07:14:26;;;;;;;59.27;36.70;;;;;;;4.97;81.01;98800.20;1674343;82;21446;-61
2021/03/15 07:17:00;;;;;;;69.60;40.70;;;;;;;4.87;81.16;98797.49;1694976;82;21223;-64
2021/03/15 07:19:28;;;;;;;70.90;42.78;;;;;;;4.86;81.38;98797.09;1695883;82;24887;-61
2021/03/15 07:21:57;;;;;;;68.87;42.63;;;;;;;4.87;81.36;98797.03;1695943;82;21210;-64
2021/03/15 07:24:29;;;;;;;65.90;38.33;;;;;;;4.90;81.35;98793.38;1696300;82;21780;-62
2021/03/15 07:26:57;;;;;;;63.23;37.90;;;;;;;4.93;81.35;98797.27;1625841;86;21920;-63
2021/03/15 07:29:28;;;;;;;60.73;35.87;;;;;;;4.94;81.36;98794.52;1691968;82;21243;-62
2021/03/15 07:31:55;;;;;;;56.40;33.67;;;;;;;4.99;81.32;98802.81;1693194;82;21216;-64
2021/03/15 07:34:23;;;;;;;52.63;33.47;;;;;;;5.02;81.29;98800.86;1697274;82;21065;-61
2021/03/15 07:37:01;;;;;;;60.17;37.53;;;;;;;5.07;81.26;98812.23;1697411;82;21215;-62
2021/03/15 07:39:29;;;;;;;63.40;37.63;;;;;;;5.11;81.28;98811.16;1696422;82;21256;-62
2021/03/15 07:41:59;;;;;;;74.83;44.93;;;;;;;5.15;81.15;98812.78;1706206;82;21255;-63
2021/03/15 07:44:33;;;;;;;62.33;38.03;;;;;;;5.17;81.06;98810.93;1724049;81;21421;-64
2021/03/15 07:47:06;;;;;;;59.53;34.30;;;;;;;5.14;80.93;98803.05;1716480;82;21208;-62
2021/03/15 07:49:38;;;;;;;55.95;32.20;;;;;;;5.12;80.87;98803.56;1720898;82;21716;-62
2021/03/15 07:52:11;;;;;;;51.33;29.50;;;;;;;5.10;80.93;98797.91;1716076;82;21388;-62
2021/03/15 07:54:41;;;;;;;48.43;29.40;;;;;;;5.12;80.93;98798.23;1720021;81;21195;-62
2021/03/15 07:57:26;;;;;;;52.90;29.50;;;;;;;5.15;80.86;98799.45;1719962;82;21243;-65
2021/03/15 07:59:57;;;;;;;48.05;29.95;;;;;;;5.20;80.88;98802.78;1717706;81;21275;-62
2021/03/15 08:02:27;;;;;;;52.73;31.63;;;;;;;5.24;80.70;98810.20;1718656;82;21640;-64
2021/03/15 08:04:56;;;;;;;49.53;30.07;;;;;;;5.23;80.64;98815.13;1717659;81;21593;-64
2021/03/15 08:07:25;;;;;;;51.77;31.87;;;;;;;5.21;80.54;98815.19;1717120;81;21951;-62
2021/03/15 08:09:59;;;;;;;50.50;29.67;;;;;;;5.19;80.61;98810.38;1718864;81;21203;-66
2021/03/15 08:12:36;;;;;;;51.70;29.65;;;;;;;5.22;80.59;98808.92;1718396;82;21231;-62
2021/03/15 08:15:10;;;;;;;44.40;27.27;;;;;;;5.26;80.56;98809.22;1718692;81;21191;-62
2021/03/15 08:17:44;;;;;;;42.58;24.43;;;;;;;5.30;80.53;98804.60;1716200;81;25593;-62
2021/03/15 08:20:13;;;;;;;43.30;25.92;;;;;;;5.33;80.39;98805.36;1718332;81;21590;-64
2021/03/15 08:22:43;;;;;;;41.60;25.20;;;;;;;5.34;80.30;98803.56;1717372;82;21276;-63
2021/03/15 08:25:12;;;;;;;37.43;23.90;;;;;;;5.37;80.30;98806.53;1716987;82;21191;-61
2021/03/15 08:27:40;;;;;;;37.47;24.77;;;;;;;5.37;80.22;98794.53;1721770;81;21118;-61
2021/03/15 08:30:16;;;;;;;38.93;26.30;;;;;;;5.36;80.19;98800.83;1714683;81;23394;-63
2021/03/15 08:32:50;;;;;;;42.67;28.43;;;;;;;5.37;80.22;98794.53;1868551;75;22726;-65
2021/03/15 08:35:18;;;;;;;40.67;26.27;;;;;;;5.31;80.23;98791.66;1845682;76;22099;-61
2021/03/15 08:37:56;;;;;;;40.50;24.93;;;;;;;5.29;80.26;98794.86;1844656;76;21734;-63
2021/03/15 08:40:48;;;;;;;41.23;25.70;;;;;;;5.28;80.32;98793.98;1845284;76;21290;-61
2021/03/15 08:43:25;;;;;;;42.87;25.03;;;;;;;5.30;80.39;98790.80;1814009;77;21213;-61
2021/03/15 08:46:13;;;;;;;44.23;26.90;;;;;;;5.35;80.43;98793.29;1806572;77;21583;-62
2021/03/15 08:48:49;;;;;;;41.50;26.13;;;;;;;5.38;80.41;98798.94;1755666;80;21135;-65
2021/03/15 08:51:37;;;;;;;42.67;26.07;;;;;;;5.41;80.41;98804.16;1776036;78;21644;-61
2021/03/15 08:54:09;;;;;;;47.70;29.83;;;;;;;5.40;80.43;98803.75;1758842;80;21207;-62
2021/03/15 08:56:43;;;;;;;40.73;25.47;;;;;;;5.40;80.44;98803.29;1773226;78;21195;-62
2021/03/15 08:59:12;;;;;;;41.00;24.30;;;;;;;5.40;80.39;98804.63;1754151;80;21863;-62
2021/03/15 09:01:57;;;;;;;38.60;23.63;;;;;;;5.37;80.37;98802.53;1772848;79;21175;-64
2021/03/15 09:04:34;;;;;;;38.20;24.35;;;;;;;5.39;80.39;98803.34;1774513;78;21375;-61
2021/03/15 09:07:04;;;;;;;38.07;23.00;;;;;;;5.40;80.34;98807.29;1746315;80;21197;-62
2021/03/15 09:09:32;;;;;;;39.60;23.67;;;;;;;5.41;80.37;98801.48;1746437;80;21670;-65
2021/03/15 09:12:01;;;;;;;40.63;25.27;;;;;;;5.44;80.41;98802.70;1773522;78;21186;-65
2021/03/15 09:14:35;;;;;;;44.77;26.47;;;;;;;5.49;80.40;98795.36;1746928;80;21185;-65
2021/03/15 09:17:20;;;;;;;40.63;25.93;;;;;;;5.52;80.32;98805.91;1772751;79;21211;-65
2021/03/15 09:19:49;;;;;;;46.80;28.77;;;;;;;5.52;80.24;98799.23;1774622;78;21223;-63
2021/03/15 09:25:20;;;;;;;49.80;29.23;;;;;;;5.45;80.35;98792.41;1817434;76;22788;-63
2021/03/15 09:27:52;;;;;;;49.30;27.95;;;;;;;5.42;80.42;98792.55;1790377;77;21040;-64
2021/03/15 09:30:30;;;;;;;59.40;36.17;;;;;;;5.43;80.50;98797.83;1785696;77;21624;-63
2021/03/15 09:32:57;;;;;;;41.63;24.63;;;;;;;5.46;80.59;98798.14;1799551;77;21103;-63
2021/03/15 09:35:33;;;;;;;50.13;30.00;;;;;;;5.49;80.54;98802.03;1783880;77;22270;-63
2021/03/15 09:38:07;;;;;;;57.58;32.00;;;;;;;5.50;80.58;98797.09;1792230;77;21059;-64
2021/03/15 09:40:41;;;;;;;58.77;35.40;;;;;;;5.48;80.62;98802.95;1794156;77;20977;-62
2021/03/15 09:43:11;;;;;;;69.63;39.53;;;;;;;5.46;80.65;98798.14;1760976;79;21202;-61
2021/03/15 09:45:40;;;;;;;71.30;43.10;;;;;;;5.46;80.71;98807.48;1740075;79;21203;-63
2021/03/15 09:48:21;;;;;;;57.37;31.90;;;;;;;5.43;80.80;98807.64;1766249;79;21598;-63
2021/03/15 09:50:51;;;;;;;93.63;52.53;;;;;;;5.40;80.83;98807.29;1775121;79;21889;-61
2021/03/15 09:53:20;;;;;;;91.23;50.53;;;;;;;5.34;80.91;98804.89;1767601;79;21048;-63
2021/03/15 09:56:10;;;;;;;56.33;32.63;;;;;;;5.36;81.06;98802.16;1769982;79;21548;-66
2021/03/15 09:58:48;;;;;;;59.17;33.37;;;;;;;5.43;81.15;98800.50;1872595;75;22673;-65
2021/03/15 10:01:22;;;;;;;50.60;30.63;;;;;;;5.42;81.15;98809.90;1848509;76;21212;-65
2021/03/15 10:03:58;;;;;;;57.07;33.07;;;;;;;5.42;81.19;98810.77;1812171;78;22122;-64
2021/03/15 10:06:45;;;;;;;54.40;31.40;;;;;;;5.42;81.23;98812.56;1810319;77;21031;-64
2021/03/15 10:09:20;;;;;;;52.90;31.47;;;;;;;5.41;81.25;98817.50;1809743;78;21192;-64
2021/03/15 10:12:19;;;;;;;45.50;27.10;;;;;;;5.46;81.33;98816.83;1865598;75;22672;-64
2021/03/15 10:15:01;;;;;;;48.10;27.40;;;;;;;5.46;81.35;98814.16;1854592;74;21170;-64
2021/03/15 10:17:34;;;;;;;46.73;24.33;;;;;;;5.46;81.34;98812.36;1861535;74;21585;-64
2021/03/15 10:20:27;;;;;;;45.57;28.37;;;;;;;5.52;81.27;98811.25;1821116;75;23306;-64
2021/03/15 10:22:55;;;;;;;50.90;28.97;;;;;;;5.47;81.21;98805.22;1788824;77;21515;-64
2021/03/15 10:25:23;;;;;;;46.13;29.17;;;;;;;5.37;81.15;98802.53;1787245;77;21144;-64
2021/03/15 10:27:58;;;;;;;47.73;27.33;;;;;;;5.17;81.27;98798.92;1789211;77;21593;-63
2021/03/15 10:30:29;;;;;;;46.87;26.80;;;;;;;5.10;81.54;98801.91;1790715;77;21029;-65
2021/03/15 10:32:58;;;;;;;45.47;25.80;;;;;;;5.06;81.77;98801.62;1789763;77;21025;-64
2021/03/15 10:35:26;;;;;;;50.73;27.87;;;;;;;5.06;81.93;98810.49;1790423;77;20941;-64
2021/03/15 10:38:01;;;;;;;43.00;26.67;;;;;;;5.11;82.13;98807.62;1784246;77;22981;-64
2021/03/15 10:40:38;;;;;;;49.33;29.83;;;;;;;5.16;82.17;98801.66;1787504;77;21095;-64
2021/03/15 10:43:08;;;;;;;48.50;28.93;;;;;;;5.20;82.22;98800.11;1767156;77;21210;-64
2021/03/15 10:45:36;;;;;;;51.67;31.03;;;;;;;5.23;82.19;98799.13;1763914;79;21500;-64
2021/03/15 10:48:06;;;;;;;52.20;30.73;;;;;;;5.23;82.24;98794.66;1759564;79;21425;-65
2021/03/15 10:50:39;;;;;;;45.63;28.33;;;;;;;5.23;82.25;98785.32;1762567;79;21387;-64
2021/03/15 10:53:22;;;;;;;41.23;25.83;;;;;;;5.23;82.35;98784.45;1761795;79;21301;-65
2021/03/15 10:55:52;;;;;;;34.53;22.57;;;;;;;5.25;82.39;98774.59;1763341;79;21509;-65
2021/03/15 10:58:23;;;;;;;35.40;23.17;;;;;;;5.27;82.42;98782.91;1759660;79;21261;-65
2021/03/15 11:01:01;;;;;;;28.60;19.23;;;;;;;5.29;82.42;98777.52;1761132;79;21151;-64
2021/03/15 11:03:30;;;;;;;29.18;19.37;;;;;;;5.27;82.40;98775.41;1765535;79;21267;-62
2021/03/15 11:06:15;;;;;;;28.43;19.97;;;;;;;5.26;82.48;98769.20;1764399;79;21540;-62
2021/03/15 11:08:58;;;;;;;29.52;21.25;;;;;;;5.30;82.52;98769.45;1761776;79;21234;-62
2021/03/15 11:11:30;;;;;;;26.83;18.27;;;;;;;5.32;82.52;98770.27;1766325;79;21166;-61
2021/03/15 11:14:02;;;;;;;22.67;15.77;;;;;;;5.33;82.49;98763.12;1761170;79;21441;-64
2021/03/15 11:16:31;;;;;;;21.83;16.00;;;;;;;5.28;82.24;98766.44;1761828;79;21577;-63
2021/03/15 11:19:12;;;;;;;18.77;13.97;;;;;;;5.21;82.29;98757.83;1762645;79;21561;-62
2021/03/15 11:21:43;;;;;;;21.43;14.30;;;;;;;5.19;82.32;98753.52;1759960;79;21178;-60
2021/03/15 11:24:28;;;;;;;18.53;12.30;;;;;;;5.25;82.38;98755.45;1869754;75;22641;-62
2021/03/15 11:27:04;;;;;;;21.13;13.60;;;;;;;5.23;82.34;98754.64;1787370;78;21213;-62
2021/03/15 11:29:48;;;;;;;17.87;13.07;;;;;;;5.25;82.45;98746.11;1771657;79;21227;-62
2021/03/15 11:32:21;;;;;;;13.93;11.30;;;;;;;5.29;82.43;98753.50;1783064;78;21232;-60
2021/03/15 11:34:51;;;;;;;13.87;10.90;;;;;;;5.32;82.38;98763.59;1758235;78;21209;-60
2021/03/15 11:37:28;;;;;;;16.67;11.90;;;;;;;5.34;82.34;98766.20;1777610;78;21285;-61
2021/03/15 11:40:05;;;;;;;17.87;11.40;;;;;;;5.33;82.27;98776.00;1809233;78;21173;-63
2021/03/15 11:42:34;;;;;;;13.17;9.57;;;;;;;5.28;82.25;98770.44;1758231;79;21228;-62
2021/03/15 11:45:06;;;;;;;9.60;8.03;;;;;;;5.26;82.25;98779.87;1759979;80;20992;-61
2021/03/15 11:47:34;;;;;;;10.13;7.60;;;;;;;5.26;82.24;98779.00;1760840;80;21207;-62
2021/03/15 11:50:15;;;;;;;6.67;5.90;;;;;;;5.25;82.24;98779.92;1759675;80;21214;-61
2021/03/15 11:53:03;;;;;;;8.43;7.72;;;;;;;5.29;82.20;98777.05;1845990;74;28567;-64
2021/03/15 11:55:33;;;;;;;10.50;6.50;;;;;;;5.30;82.03;98772.12;1831485;75;21431;-61
2021/03/15 11:58:00;;;;;;;7.97;7.17;;;;;;;5.36;81.98;98774.14;1833091;75;21195;-65
2021/03/15 12:00:29;;;;;;;7.83;6.67;;;;;;;5.34;81.92;98774.20;1835323;75;20999;-65